Time;durP1;ratioP1;P1;durP2;ratioP2;P2;SDS_P1;SDS_P2;PMS_P1;PMS_P2;Temp;Humidity;BMP_temperature;BMP_pressure;BME280_temperature;BME280_humidity;BME280_pressure;Samples;Min_cycle;Max_cycle;Signal;HPM_P1;HPM_P2
2021/12/16 00:03:06;;;;;;;0.10;0.10;;;9.10;99.90;;;;;;4960634;28;20699;-69
2021/12/16 00:05:53;;;;;;;0.07;0.07;;;9.10;99.90;;;;;;5026843;28;20660;-69
2021/12/16 00:08:29;;;;;;;0.00;0.00;;;9.20;99.90;;;;;;5048846;28;20627;-70
2021/12/16 00:11:04;;;;;;;0.10;0.10;;;9.10;99.90;;;;;;5033947;28;20620;-68
2021/12/16 00:19:51;;;;;;;0.10;0.10;;;9.20;99.90;;;;;;4956046;28;20640;-69
2021/12/16 00:31:03;;;;;;;0.10;0.10;;;9.20;99.90;;;;;;5063235;28;20705;-70
2021/12/16 00:33:36;;;;;;;0.10;0.10;;;9.10;99.90;;;;;;5046208;28;20619;-68
2021/12/16 00:36:08;;;;;;;0.00;0.00;;;9.20;99.90;;;;;;5048105;28;20625;-68
2021/12/16 00:38:38;;;;;;;0.10;0.10;;;9.20;99.90;;;;;;5053148;28;20629;-73
2021/12/16 00:41:05;;;;;;;0.00;0.00;;;9.20;99.90;;;;;;5048710;28;20664;-69
2021/12/16 00:43:38;;;;;;;0.00;0.00;;;9.20;99.90;;;;;;5045319;28;21272;-72
2021/12/16 00:46:17;;;;;;;0.10;0.10;;;9.20;99.90;;;;;;5045691;28;20629;-68
2021/12/16 00:49:07;;;;;;;0.10;0.10;;;9.20;99.90;;;;;;5047066;28;20621;-69
2021/12/16 00:54:19;;;;;;;0.07;0.07;;;9.20;99.90;;;;;;5046870;28;20712;-68
2021/12/16 00:56:51;;;;;;;0.10;0.10;;;9.20;99.90;;;;;;5049279;28;20632;-70
2021/12/16 00:59:21;;;;;;;0.10;0.10;;;9.20;99.90;;;;;;5031053;28;20624;-71
2021/12/16 01:01:56;;;;;;;0.10;0.10;;;9.20;99.90;;;;;;5046268;28;20673;-70
2021/12/16 01:35:19;;;;;;;0.10;0.10;;;9.10;99.90;;;;;;5053654;28;20616;-71
2021/12/16 01:38:25;;;;;;;0.10;0.10;;;9.10;99.90;;;;;;5054096;28;20717;-68
2021/12/16 01:41:28;;;;;;;0.00;0.00;;;9.10;99.90;;;;;;5051173;28;20651;-69
2021/12/16 01:47:02;;;;;;;0.10;0.10;;;9.10;99.90;;;;;;5072696;28;20613;-68
2021/12/16 01:49:45;;;;;;;0.10;0.10;;;9.00;99.90;;;;;;5054076;28;20629;-68
2021/12/16 01:52:38;;;;;;;0.10;0.10;;;9.00;99.90;;;;;;5050173;28;20653;-70
2021/12/16 01:55:13;;;;;;;0.10;0.10;;;9.00;99.90;;;;;;5065783;28;20948;-71
2021/12/16 01:57:44;;;;;;;0.10;0.10;;;9.10;99.90;;;;;;5036926;28;20716;-68
2021/12/16 02:00:16;;;;;;;0.07;0.07;;;9.10;99.90;;;;;;5057025;28;20665;-70
2021/12/16 02:02:47;;;;;;;0.10;0.10;;;9.10;99.90;;;;;;5034594;28;20654;-68
2021/12/16 02:05:22;;;;;;;0.00;0.00;;;9.10;99.90;;;;;;5049750;28;20622;-69
2021/12/16 02:08:13;;;;;;;0.00;0.00;;;9.10;99.90;;;;;;5052559;28;20628;-70
2021/12/16 02:10:48;;;;;;;0.10;0.10;;;9.10;99.90;;;;;;5053532;28;20762;-68
2021/12/16 02:13:38;;;;;;;0.10;0.10;;;9.10;99.90;;;;;;5051087;28;20662;-71
2021/12/16 02:27:29;;;;;;;0.10;0.10;;;9.10;99.90;;;;;;5049651;28;20633;-68
2021/12/16 02:30:44;;;;;;;0.00;0.00;;;9.10;99.90;;;;;;5047042;28;20712;-68
2021/12/16 02:33:16;;;;;;;0.00;0.00;;;9.20;99.90;;;;;;5051311;28;20684;-69
2021/12/16 02:35:46;;;;;;;0.10;0.10;;;9.10;99.90;;;;;;5049956;28;20623;-72
2021/12/16 02:38:17;;;;;;;0.10;0.10;;;9.10;99.90;;;;;;5059298;28;20620;-70
2021/12/16 02:40:47;;;;;;;0.10;0.10;;;9.10;99.90;;;;;;5039425;28;20760;-69
2021/12/16 02:43:49;;;;;;;0.10;0.10;;;9.10;99.90;;;;;;5064068;28;20660;-70
2021/12/16 02:48:57;;;;;;;0.10;0.10;;;9.00;99.90;;;;;;5047282;28;20610;-70
2021/12/16 02:51:28;;;;;;;0.10;0.10;;;9.00;99.90;;;;;;5036586;28;20657;-69
2021/12/16 02:53:59;;;;;;;0.07;0.07;;;9.00;99.90;;;;;;5051356;28;20616;-70
2021/12/16 02:56:28;;;;;;;0.00;0.00;;;9.00;99.90;;;;;;5052857;28;20629;-69
2021/12/16 02:58:57;;;;;;;0.10;0.10;;;9.00;99.90;;;;;;5052166;28;20626;-69
2021/12/16 03:01:29;;;;;;;0.00;0.00;;;8.90;99.90;;;;;;5051973;28;20680;-71
2021/12/16 03:03:59;;;;;;;0.10;0.10;;;8.80;99.90;;;;;;5037890;28;20683;-69
2021/12/16 03:06:29;;;;;;;0.10;0.10;;;8.70;99.90;;;;;;5066998;28;20632;-69
2021/12/16 03:08:58;;;;;;;0.07;0.07;;;8.70;99.90;;;;;;5053086;28;20699;-70
2021/12/16 03:11:33;;;;;;;0.10;0.10;;;8.60;99.90;;;;;;5053157;28;21275;-71
2021/12/16 03:14:21;;;;;;;0.00;0.00;;;8.60;99.90;;;;;;5051232;28;20729;-70
2021/12/16 03:17:07;;;;;;;0.00;0.00;;;8.60;99.90;;;;;;5054662;28;20637;-69
2021/12/16 03:19:46;;;;;;;0.10;0.10;;;8.60;99.90;;;;;;5064082;28;20695;-69
2021/12/16 03:22:26;;;;;;;0.00;0.00;;;8.50;99.90;;;;;;5049591;28;20652;-69
2021/12/16 03:25:12;;;;;;;0.10;0.10;;;8.50;99.90;;;;;;5051154;28;20627;-69
2021/12/16 03:28:15;;;;;;;0.00;0.00;;;8.50;99.90;;;;;;5034028;28;20632;-68
2021/12/16 03:36:46;;;;;;;0.00;0.00;;;8.50;99.90;;;;;;4965961;28;20632;-69
2021/12/16 03:39:14;;;;;;;0.00;0.00;;;8.50;99.90;;;;;;5037569;28;20633;-68
2021/12/16 03:41:43;;;;;;;0.10;0.10;;;8.50;99.90;;;;;;5052710;28;20695;-68
2021/12/16 03:44:14;;;;;;;0.10;0.10;;;8.50;99.90;;;;;;5037192;28;20647;-70
2021/12/16 03:46:46;;;;;;;0.10;0.10;;;8.50;99.90;;;;;;5051903;28;20633;-70
2021/12/16 03:49:18;;;;;;;0.10;0.10;;;8.50;99.90;;;;;;5051902;28;20633;-70
2021/12/16 03:51:50;;;;;;;0.10;0.10;;;8.50;99.90;;;;;;5048307;28;20672;-69
2021/12/16 03:54:21;;;;;;;0.10;0.10;;;8.50;99.90;;;;;;5048243;28;20617;-68
2021/12/16 03:56:54;;;;;;;0.00;0.00;;;8.40;99.90;;;;;;5050164;28;20620;-68
2021/12/16 03:59:28;;;;;;;0.10;0.10;;;8.40;99.90;;;;;;5034723;28;20618;-69
2021/12/16 04:02:04;;;;;;;0.03;0.03;;;8.40;99.90;;;;;;5047546;28;20683;-69
2021/12/16 04:04:38;;;;;;;0.10;0.10;;;8.40;99.90;;;;;;5050056;28;20625;-71
2021/12/16 04:07:07;;;;;;;0.07;0.07;;;8.40;99.90;;;;;;5053733;28;20624;-72
2021/12/16 04:09:48;;;;;;;0.10;0.10;;;8.40;99.90;;;;;;5049657;28;20617;-70
2021/12/16 04:12:25;;;;;;;0.10;0.10;;;8.40;99.90;;;;;;5051959;28;21318;-68
2021/12/16 04:14:56;;;;;;;0.10;0.10;;;8.40;99.90;;;;;;5040232;28;20623;-68
2021/12/16 04:17:28;;;;;;;0.10;0.10;;;8.40;99.90;;;;;;5037739;28;20638;-68
2021/12/16 04:20:00;;;;;;;0.00;0.00;;;8.40;99.90;;;;;;5046618;28;20628;-69
2021/12/16 04:22:34;;;;;;;0.10;0.10;;;8.40;99.90;;;;;;5036061;28;20653;-68
2021/12/16 04:25:08;;;;;;;0.00;0.00;;;8.40;99.90;;;;;;5068665;28;20616;-68
2021/12/16 04:27:38;;;;;;;0.10;0.10;;;8.40;99.90;;;;;;5048229;28;20636;-69
2021/12/16 04:30:08;;;;;;;0.10;0.10;;;8.40;99.90;;;;;;5049851;28;20620;-72
2021/12/16 04:32:38;;;;;;;0.03;0.03;;;8.40;99.90;;;;;;5049947;28;20756;-71
2021/12/16 04:35:06;;;;;;;0.00;0.00;;;8.40;99.90;;;;;;5048245;28;20624;-69
2021/12/16 04:37:35;;;;;;;0.10;0.10;;;8.40;99.90;;;;;;5049685;28;20687;-67
2021/12/16 04:40:07;;;;;;;0.10;0.10;;;8.30;99.90;;;;;;5051978;28;20621;-69
2021/12/16 04:42:36;;;;;;;0.10;0.10;;;8.30;99.90;;;;;;5046058;28;20670;-70
2021/12/16 04:45:04;;;;;;;0.10;0.10;;;8.30;99.90;;;;;;5050407;28;20659;-69
2021/12/16 04:47:32;;;;;;;0.10;0.10;;;8.30;99.90;;;;;;5050377;28;20735;-69
2021/12/16 04:49:59;;;;;;;0.10;0.10;;;8.30;99.90;;;;;;5032129;28;20695;-68
2021/12/16 04:52:27;;;;;;;0.10;0.10;;;8.30;99.90;;;;;;5066477;28;20710;-69
2021/12/16 04:54:54;;;;;;;0.10;0.10;;;8.30;99.90;;;;;;5053815;28;20615;-71
2021/12/16 04:57:22;;;;;;;0.10;0.10;;;8.30;99.90;;;;;;5048294;28;20668;-68
2021/12/16 04:59:49;;;;;;;0.10;0.10;;;8.30;99.90;;;;;;5045048;28;20634;-69
2021/12/16 05:02:19;;;;;;;0.07;0.07;;;8.30;99.90;;;;;;5048951;28;20757;-69
2021/12/16 05:05:20;;;;;;;0.07;0.07;;;8.30;99.90;;;;;;5029691;28;20630;-68
2021/12/16 05:07:48;;;;;;;0.10;0.10;;;8.30;99.90;;;;;;5045770;28;20653;-69
2021/12/16 05:10:23;;;;;;;0.03;0.03;;;8.30;99.90;;;;;;5035984;28;20628;-68
2021/12/16 05:13:08;;;;;;;0.00;0.00;;;8.30;99.90;;;;;;5046868;28;20645;-69
2021/12/16 05:15:38;;;;;;;0.10;0.10;;;8.30;99.90;;;;;;5048419;28;20628;-69
2021/12/16 05:18:11;;;;;;;0.10;0.10;;;8.30;99.90;;;;;;5050087;28;20633;-69
2021/12/16 05:20:46;;;;;;;0.10;0.10;;;8.30;99.90;;;;;;5048526;28;20739;-70
2021/12/16 05:26:16;;;;;;;0.10;0.10;;;8.40;99.90;;;;;;5060682;28;20770;-70
2021/12/16 05:28:50;;;;;;;0.10;0.10;;;8.40;99.90;;;;;;5052848;28;20644;-71
2021/12/16 05:31:18;;;;;;;0.10;0.10;;;8.40;99.90;;;;;;5049680;28;20617;-69
2021/12/16 05:33:52;;;;;;;0.10;0.10;;;8.50;99.90;;;;;;5051966;28;20621;-69
2021/12/16 05:36:20;;;;;;;0.10;0.10;;;8.50;99.90;;;;;;5058432;28;20638;-68
2021/12/16 05:38:47;;;;;;;0.10;0.10;;;8.50;99.90;;;;;;5052021;28;20653;-69
2021/12/16 05:41:18;;;;;;;0.10;0.10;;;8.60;99.90;;;;;;5038757;28;20654;-69
2021/12/16 05:43:47;;;;;;;0.10;0.10;;;8.60;99.90;;;;;;5069303;28;20715;-69
2021/12/16 05:46:17;;;;;;;0.00;0.00;;;8.70;99.90;;;;;;5054036;28;20673;-70
2021/12/16 05:48:47;;;;;;;0.10;0.10;;;8.70;99.90;;;;;;5038184;28;20620;-69
2021/12/16 05:51:19;;;;;;;0.10;0.10;;;8.80;99.90;;;;;;5050848;28;20621;-70
2021/12/16 05:53:47;;;;;;;0.10;0.10;;;8.80;99.90;;;;;;5049241;28;20660;-70
2021/12/16 05:56:37;;;;;;;0.10;0.10;;;8.90;99.90;;;;;;5070555;28;20637;-68
2021/12/16 05:59:05;;;;;;;0.10;0.10;;;8.90;99.90;;;;;;5047231;28;20755;-69
2021/12/16 06:01:38;;;;;;;0.10;0.10;;;8.80;99.90;;;;;;5052540;28;20693;-68
2021/12/16 06:04:06;;;;;;;0.10;0.10;;;8.80;99.90;;;;;;5051046;28;20641;-70
2021/12/16 06:06:39;;;;;;;0.10;0.10;;;8.80;99.90;;;;;;5053694;28;20706;-69
2021/12/16 06:09:08;;;;;;;0.10;0.10;;;8.80;99.90;;;;;;5051427;28;20634;-71
2021/12/16 06:11:40;;;;;;;0.10;0.10;;;8.70;99.90;;;;;;5049495;28;21048;-69
2021/12/16 06:14:16;;;;;;;0.10;0.10;;;8.70;99.90;;;;;;5052106;28;20593;-72
2021/12/16 06:22:30;;;;;;;0.00;0.00;;;8.60;99.90;;;;;;5071828;28;20658;-69
2021/12/16 06:27:55;;;;;;;0.10;0.10;;;8.60;99.90;;;;;;5015755;28;20631;-69
2021/12/16 06:30:25;;;;;;;0.10;0.10;;;8.60;99.90;;;;;;5045573;28;20625;-69
2021/12/16 06:32:52;;;;;;;0.10;0.10;;;8.60;99.90;;;;;;5050096;28;20656;-69
2021/12/16 06:35:20;;;;;;;0.10;0.10;;;8.60;99.90;;;;;;5054807;28;20656;-70
2021/12/16 06:37:49;;;;;;;0.10;0.10;;;8.60;99.90;;;;;;5053385;28;20605;-69
2021/12/16 06:40:38;;;;;;;0.10;0.10;;;8.70;99.90;;;;;;5052691;28;20700;-69
2021/12/16 06:43:21;;;;;;;0.10;0.10;;;8.70;99.90;;;;;;5050126;28;20642;-68
2021/12/16 06:45:50;;;;;;;0.10;0.10;;;8.70;99.90;;;;;;5052230;28;20609;-70
2021/12/16 06:48:22;;;;;;;0.03;0.03;;;8.70;99.90;;;;;;5053187;28;20685;-70
2021/12/16 06:50:51;;;;;;;0.10;0.10;;;8.70;99.90;;;;;;5034986;28;20613;-69
2021/12/16 06:53:26;;;;;;;0.10;0.10;;;8.70;99.90;;;;;;5071520;28;20649;-70
2021/12/16 06:56:02;;;;;;;0.10;0.10;;;8.70;99.90;;;;;;5052618;28;20601;-70
2021/12/16 06:58:34;;;;;;;0.10;0.10;;;8.70;99.90;;;;;;5053160;28;20662;-68
2021/12/16 07:01:11;;;;;;;0.00;0.00;;;8.70;99.90;;;;;;5049438;28;20727;-69
2021/12/16 07:03:47;;;;;;;0.00;0.00;;;8.70;99.90;;;;;;5052717;28;20715;-70
2021/12/16 07:06:21;;;;;;;0.00;0.00;;;8.70;99.90;;;;;;5052893;28;20617;-69
2021/12/16 07:08:52;;;;;;;0.10;0.10;;;8.70;99.90;;;;;;5049234;28;20613;-68
2021/12/16 07:11:20;;;;;;;0.10;0.10;;;8.70;99.90;;;;;;5054367;28;20609;-69
2021/12/16 07:13:56;;;;;;;0.10;0.10;;;8.70;99.90;;;;;;5056171;28;20621;-69
2021/12/16 07:16:24;;;;;;;0.00;0.00;;;8.70;99.90;;;;;;5050125;28;20617;-69
2021/12/16 07:18:51;;;;;;;0.10;0.10;;;8.70;99.90;;;;;;5050440;28;20796;-70
2021/12/16 07:21:18;;;;;;;0.10;0.10;;;8.80;99.90;;;;;;5052223;28;20653;-68
2021/12/16 07:23:46;;;;;;;0.10;0.10;;;8.70;99.90;;;;;;5052041;28;20718;-70
2021/12/16 07:26:14;;;;;;;0.10;0.10;;;8.70;99.90;;;;;;5052022;28;20999;-69
2021/12/16 07:28:41;;;;;;;0.00;0.00;;;8.70;99.90;;;;;;5045105;28;20660;-70
2021/12/16 07:31:09;;;;;;;0.10;0.10;;;8.70;99.90;;;;;;5037863;28;20626;-69
2021/12/16 07:33:39;;;;;;;0.00;0.00;;;8.70;99.90;;;;;;5068833;28;20656;-70
2021/12/16 07:36:09;;;;;;;0.10;0.10;;;8.70;99.90;;;;;;5049396;28;20614;-71
2021/12/16 07:38:38;;;;;;;0.10;0.10;;;8.80;99.90;;;;;;5036734;28;20614;-69
2021/12/16 07:41:05;;;;;;;0.10;0.10;;;8.80;99.90;;;;;;5051560;28;20645;-70
2021/12/16 07:43:54;;;;;;;0.10;0.10;;;8.80;99.90;;;;;;5055420;28;20618;-70
2021/12/16 07:46:21;;;;;;;0.10;0.10;;;8.80;99.90;;;;;;5049712;28;20625;-70
2021/12/16 07:48:48;;;;;;;0.10;0.10;;;8.80;99.90;;;;;;5047846;28;20626;-72
2021/12/16 07:51:16;;;;;;;0.10;0.10;;;8.80;99.90;;;;;;5055251;28;20624;-71
2021/12/16 07:53:43;;;;;;;0.10;0.10;;;8.80;99.90;;;;;;5066258;28;20621;-70
2021/12/16 07:56:11;;;;;;;0.10;0.10;;;8.80;99.90;;;;;;5049722;28;20625;-70
2021/12/16 07:58:39;;;;;;;0.10;0.10;;;8.80;99.90;;;;;;5049465;28;20625;-69
2021/12/16 08:01:08;;;;;;;0.10;0.10;;;8.80;99.90;;;;;;5050469;28;20624;-69
2021/12/16 08:03:37;;;;;;;0.10;0.10;;;8.80;99.90;;;;;;5056630;28;20610;-69
2021/12/16 08:06:09;;;;;;;0.10;0.10;;;8.80;99.90;;;;;;5049504;28;20628;-69
2021/12/16 08:08:37;;;;;;;0.10;0.10;;;8.80;99.90;;;;;;5051763;28;20652;-69
2021/12/16 08:11:06;;;;;;;0.10;0.10;;;8.90;99.90;;;;;;5049103;28;20628;-70
2021/12/16 08:13:33;;;;;;;0.10;0.10;;;8.90;99.90;;;;;;5054165;28;20609;-71
2021/12/16 08:16:03;;;;;;;0.10;0.10;;;8.90;99.90;;;;;;5051437;28;20606;-71
2021/12/16 08:18:31;;;;;;;0.10;0.10;;;8.90;99.90;;;;;;5049762;28;20620;-70
2021/12/16 08:20:59;;;;;;;0.10;0.10;;;8.90;99.90;;;;;;5046394;28;20622;-69
2021/12/16 08:23:26;;;;;;;0.10;0.10;;;8.90;99.90;;;;;;5049011;28;20678;-69
2021/12/16 08:25:54;;;;;;;0.10;0.10;;;9.00;99.90;;;;;;5033938;28;20741;-71
2021/12/16 08:28:23;;;;;;;0.10;0.10;;;9.00;99.90;;;;;;5050798;28;20633;-69
2021/12/16 08:30:52;;;;;;;0.10;0.10;;;9.00;99.90;;;;;;5049762;28;20622;-69
2021/12/16 08:33:21;;;;;;;0.10;0.10;;;9.00;99.90;;;;;;5061185;28;20661;-69
2021/12/16 08:35:50;;;;;;;0.10;0.10;;;9.00;99.90;;;;;;5046376;28;21015;-70
2021/12/16 08:38:20;;;;;;;0.10;0.10;;;9.10;99.90;;;;;;5052190;28;20614;-69
2021/12/16 08:40:51;;;;;;;0.10;0.10;;;9.10;99.90;;;;;;5049654;28;20732;-69
2021/12/16 08:43:19;;;;;;;0.10;0.10;;;9.10;99.90;;;;;;5052605;28;20673;-70
2021/12/16 08:45:47;;;;;;;0.10;0.10;;;9.10;99.90;;;;;;5049784;28;21250;-69
2021/12/16 08:48:14;;;;;;;0.10;0.10;;;9.20;99.90;;;;;;5046014;28;20668;-70
2021/12/16 08:50:47;;;;;;;0.10;0.10;;;9.20;99.90;;;;;;5049059;28;20630;-71
2021/12/16 08:53:15;;;;;;;0.10;0.10;;;9.20;99.90;;;;;;5050091;28;20760;-69
2021/12/16 08:55:44;;;;;;;0.10;0.10;;;9.20;99.90;;;;;;5049804;28;20664;-70
2021/12/16 08:58:11;;;;;;;0.03;0.03;;;9.20;99.90;;;;;;5048450;28;20622;-70
2021/12/16 09:00:43;;;;;;;0.00;0.00;;;9.20;99.90;;;;;;5049571;28;20617;-70
2021/12/16 09:03:10;;;;;;;0.10;0.10;;;9.20;99.90;;;;;;5045777;28;20694;-70
2021/12/16 09:05:38;;;;;;;0.10;0.10;;;9.30;99.90;;;;;;5049076;28;20629;-70
2021/12/16 09:08:07;;;;;;;0.10;0.10;;;9.30;99.90;;;;;;5050177;28;20614;-69
2021/12/16 09:10:37;;;;;;;0.10;0.10;;;9.30;99.90;;;;;;5050737;28;20692;-70
2021/12/16 09:13:09;;;;;;;0.00;0.00;;;9.30;99.90;;;;;;5048433;28;20727;-69
2021/12/16 09:15:41;;;;;;;0.10;0.10;;;9.30;99.90;;;;;;5034696;28;20683;-70
2021/12/16 09:18:09;;;;;;;0.10;0.10;;;9.30;99.90;;;;;;5050080;28;20701;-69
2021/12/16 09:20:37;;;;;;;0.10;0.10;;;9.30;99.90;;;;;;5048808;28;20623;-69
2021/12/16 09:23:07;;;;;;;0.10;0.10;;;9.30;99.90;;;;;;5063562;28;20681;-69
2021/12/16 09:25:35;;;;;;;0.10;0.10;;;9.40;99.90;;;;;;5049099;28;20625;-70
2021/12/16 09:28:02;;;;;;;0.10;0.10;;;9.40;99.90;;;;;;5048646;28;20637;-70
2021/12/16 09:30:30;;;;;;;0.10;0.10;;;9.40;99.90;;;;;;5047234;28;20617;-70
2021/12/16 09:33:00;;;;;;;0.10;0.10;;;9.40;99.90;;;;;;5044937;28;20653;-69
2021/12/16 09:35:28;;;;;;;0.10;0.10;;;9.50;99.90;;;;;;5049210;28;20716;-69
2021/12/16 09:37:57;;;;;;;0.10;0.10;;;9.40;99.90;;;;;;5044650;28;20618;-69
2021/12/16 09:40:29;;;;;;;0.10;0.10;;;9.40;99.90;;;;;;5047411;28;20624;-69
2021/12/16 09:42:57;;;;;;;0.10;0.10;;;9.40;99.90;;;;;;5046811;28;20757;-69
2021/12/16 09:45:25;;;;;;;0.10;0.10;;;9.40;99.90;;;;;;5050932;28;20629;-69
2021/12/16 09:47:53;;;;;;;0.10;0.10;;;9.40;99.90;;;;;;5048167;28;21262;-69
2021/12/16 09:50:28;;;;;;;0.10;0.10;;;9.40;99.90;;;;;;5049251;28;20625;-69
2021/12/16 09:52:56;;;;;;;0.10;0.10;;;9.40;99.90;;;;;;5038962;28;20652;-70
2021/12/16 09:55:23;;;;;;;0.10;0.10;;;9.40;99.90;;;;;;5052789;28;21187;-69
2021/12/16 09:57:52;;;;;;;0.10;0.10;;;9.40;99.90;;;;;;5052041;28;20206;-71
2021/12/16 10:00:22;;;;;;;0.10;0.10;;;9.40;99.90;;;;;;5053892;28;20626;-69
2021/12/16 10:02:49;;;;;;;0.10;0.10;;;9.40;99.90;;;;;;5051643;28;20663;-69
2021/12/16 10:05:18;;;;;;;0.10;0.10;;;9.40;99.90;;;;;;5053201;28;20621;-70
2021/12/16 10:07:45;;;;;;;0.10;0.10;;;9.40;99.90;;;;;;5037311;28;20642;-69
2021/12/16 10:10:16;;;;;;;0.10;0.10;;;9.40;99.90;;;;;;5050734;28;20744;-69
2021/12/16 10:12:47;;;;;;;0.10;0.10;;;9.40;99.90;;;;;;5052131;28;20661;-69
2021/12/16 10:18:09;;;;;;;0.00;0.00;;;9.50;99.90;;;;;;5039787;28;20979;-70
2021/12/16 10:20:40;;;;;;;0.10;0.10;;;9.50;99.90;;;;;;5054909;28;20710;-70
2021/12/16 10:23:10;;;;;;;0.10;0.10;;;9.60;99.90;;;;;;5052359;28;20697;-70
2021/12/16 10:25:41;;;;;;;0.00;0.00;;;9.50;99.90;;;;;;5052583;28;20635;-69
2021/12/16 10:28:11;;;;;;;0.10;0.10;;;9.60;99.90;;;;;;5055277;28;20624;-71
2021/12/16 10:30:51;;;;;;;0.10;0.10;;;9.60;99.90;;;;;;5054470;28;20637;-70
2021/12/16 10:33:30;;;;;;;0.10;0.10;;;9.60;99.90;;;;;;5069665;28;20777;-69
2021/12/16 10:36:07;;;;;;;0.00;0.00;;;9.60;99.90;;;;;;5048721;28;20661;-69
2021/12/16 10:38:38;;;;;;;0.10;0.10;;;9.50;99.90;;;;;;5051817;28;20605;-69
2021/12/16 10:41:07;;;;;;;0.10;0.10;;;9.50;99.90;;;;;;5050953;28;20616;-69
2021/12/16 10:43:38;;;;;;;0.10;0.10;;;9.60;99.90;;;;;;5053498;28;20656;-70
2021/12/16 10:46:09;;;;;;;0.10;0.10;;;9.60;99.90;;;;;;5068066;28;20616;-70
2021/12/16 10:48:41;;;;;;;0.03;0.03;;;9.50;99.90;;;;;;5051040;28;20609;-71
2021/12/16 10:51:28;;;;;;;0.10;0.10;;;9.50;99.90;;;;;;5052148;28;20625;-69
2021/12/16 10:54:09;;;;;;;0.10;0.10;;;9.60;99.90;;;;;;5038061;28;20624;-69
2021/12/16 10:56:44;;;;;;;0.10;0.10;;;9.60;99.90;;;;;;5053927;28;20643;-70
2021/12/16 10:59:16;;;;;;;0.10;0.10;;;9.60;99.90;;;;;;5050801;28;21068;-69
2021/12/16 11:01:57;;;;;;;0.10;0.10;;;9.60;99.90;;;;;;5035795;28;20720;-70
2021/12/16 11:04:29;;;;;;;0.00;0.00;;;9.60;99.90;;;;;;5049925;28;20660;-69
2021/12/16 11:06:59;;;;;;;0.10;0.10;;;9.60;99.90;;;;;;5048863;28;20636;-69
2021/12/16 11:09:33;;;;;;;0.10;0.10;;;9.60;99.90;;;;;;5051255;28;20623;-69
2021/12/16 11:12:14;;;;;;;0.10;0.10;;;9.60;99.90;;;;;;5053552;28;20675;-71
2021/12/16 11:14:44;;;;;;;0.10;0.10;;;9.60;99.90;;;;;;5048494;28;20633;-69
2021/12/16 11:17:15;;;;;;;0.00;0.00;;;9.60;99.90;;;;;;5071369;28;20624;-69
2021/12/16 11:19:45;;;;;;;0.10;0.10;;;9.60;99.90;;;;;;5051373;28;20617;-69
2021/12/16 11:22:14;;;;;;;0.00;0.00;;;9.60;99.90;;;;;;5050075;28;20685;-70
2021/12/16 11:24:41;;;;;;;0.10;0.10;;;9.60;99.90;;;;;;5049903;28;20643;-69
2021/12/16 11:27:36;;;;;;;0.00;0.00;;;9.70;99.90;;;;;;5047415;28;20621;-69
2021/12/16 11:30:28;;;;;;;0.10;0.10;;;9.70;99.90;;;;;;5014989;28;20728;-68
2021/12/16 11:33:05;;;;;;;0.00;0.00;;;9.70;99.90;;;;;;5047550;28;20646;-70
2021/12/16 11:35:41;;;;;;;0.00;0.00;;;9.70;99.90;;;;;;5047091;28;20632;-69
2021/12/16 11:38:15;;;;;;;0.00;0.00;;;9.70;99.90;;;;;;5051879;28;20686;-70
2021/12/16 11:41:03;;;;;;;0.00;0.00;;;9.70;99.90;;;;;;5068773;28;20629;-69
2021/12/16 11:43:41;;;;;;;0.10;0.10;;;9.70;99.90;;;;;;5051934;28;20652;-69
2021/12/16 11:46:15;;;;;;;0.10;0.10;;;9.70;99.90;;;;;;5050512;28;20612;-71
2021/12/16 11:48:44;;;;;;;0.00;0.00;;;9.70;99.90;;;;;;5050847;28;20617;-72
2021/12/16 11:51:14;;;;;;;0.00;0.00;;;9.70;99.90;;;;;;5047621;28;20724;-71
2021/12/16 11:53:46;;;;;;;0.00;0.00;;;9.70;99.90;;;;;;5050029;28;20608;-69
2021/12/16 11:56:13;;;;;;;0.10;0.10;;;9.70;99.90;;;;;;5051570;28;21155;-69
2021/12/16 11:58:43;;;;;;;0.10;0.10;;;9.70;99.90;;;;;;5050222;28;20653;-69
2021/12/16 12:01:18;;;;;;;0.10;0.10;;;9.70;99.90;;;;;;5047352;28;20628;-69
2021/12/16 12:03:48;;;;;;;0.00;0.00;;;9.70;99.90;;;;;;5054767;28;20306;-68
2021/12/16 12:06:24;;;;;;;0.10;0.10;;;9.70;99.90;;;;;;5051068;28;20289;-68
2021/12/16 12:08:53;;;;;;;0.10;0.10;;;9.70;99.90;;;;;;5038662;28;20736;-69
2021/12/16 12:11:25;;;;;;;0.10;0.10;;;9.80;99.90;;;;;;5050482;28;20194;-70
2021/12/16 12:13:56;;;;;;;0.00;0.00;;;9.80;99.90;;;;;;5050291;28;20723;-68
2021/12/16 12:16:28;;;;;;;0.10;0.10;;;9.80;99.90;;;;;;5066042;28;20635;-68
2021/12/16 12:18:59;;;;;;;0.10;0.10;;;9.80;99.90;;;;;;5049826;28;20629;-69
2021/12/16 12:21:35;;;;;;;0.10;0.10;;;9.70;99.90;;;;;;5048923;28;20689;-68
2021/12/16 12:24:06;;;;;;;0.10;0.10;;;9.70;99.90;;;;;;5053817;28;20691;-69
2021/12/16 12:26:36;;;;;;;0.10;0.10;;;9.70;99.90;;;;;;5048514;28;20207;-69
2021/12/16 12:29:08;;;;;;;0.10;0.10;;;9.70;99.90;;;;;;5052433;28;20310;-68
2021/12/16 12:31:40;;;;;;;0.10;0.10;;;9.70;99.90;;;;;;5034011;28;20654;-68
2021/12/16 12:34:09;;;;;;;0.10;0.10;;;9.70;99.90;;;;;;5050607;28;20638;-68
2021/12/16 12:36:37;;;;;;;0.10;0.10;;;9.60;99.90;;;;;;5049469;28;20636;-67
2021/12/16 12:39:07;;;;;;;0.10;0.10;;;9.60;99.90;;;;;;5048060;28;20622;-67
2021/12/16 12:41:34;;;;;;;0.10;0.10;;;9.60;99.90;;;;;;5051450;28;20641;-68
2021/12/16 12:44:04;;;;;;;0.10;0.10;;;9.70;99.90;;;;;;5048136;28;20656;-68
2021/12/16 12:46:35;;;;;;;0.10;0.10;;;9.70;99.90;;;;;;5052391;28;20652;-68
2021/12/16 12:49:06;;;;;;;0.10;0.10;;;9.70;99.90;;;;;;5065930;28;21179;-69
2021/12/16 12:51:38;;;;;;;0.10;0.10;;;9.70;99.90;;;;;;5052311;28;20668;-68
2021/12/16 12:54:23;;;;;;;0.00;0.00;;;9.80;99.90;;;;;;5051044;28;20609;-68
2021/12/16 12:56:52;;;;;;;0.10;0.10;;;9.80;99.90;;;;;;5052632;28;20620;-69
2021/12/16 12:59:20;;;;;;;0.00;0.00;;;9.80;99.90;;;;;;5046912;28;20214;-68
2021/12/16 13:01:50;;;;;;;0.00;0.00;;;9.80;99.90;;;;;;5050627;28;20756;-68
2021/12/16 13:04:23;;;;;;;0.10;0.10;;;9.80;99.90;;;;;;5051309;28;20649;-68
2021/12/16 13:06:56;;;;;;;0.10;0.10;;;9.90;99.90;;;;;;5047896;28;20226;-68
2021/12/16 13:09:32;;;;;;;0.10;0.10;;;9.80;99.90;;;;;;5048537;28;20622;-68
2021/12/16 13:12:01;;;;;;;0.00;0.00;;;9.90;99.90;;;;;;5046668;28;20722;-68
2021/12/16 13:14:49;;;;;;;0.10;0.10;;;9.90;99.90;;;;;;5052751;28;20208;-68
2021/12/16 13:23:53;;;;;;;0.00;0.00;;;9.80;99.90;;;;;;5034545;28;20727;-69
2021/12/16 13:29:13;;;;;;;0.00;0.00;;;9.90;99.90;;;;;;5054716;28;20670;-69
2021/12/16 13:31:52;;;;;;;0.10;0.10;;;9.90;99.90;;;;;;5051467;28;20660;-69
2021/12/16 13:34:41;;;;;;;0.10;0.10;;;9.90;99.90;;;;;;5053901;28;20190;-70
2021/12/16 13:37:14;;;;;;;0.10;0.10;;;9.90;99.90;;;;;;5066603;28;20631;-69
2021/12/16 13:39:48;;;;;;;0.10;0.10;;;9.90;99.90;;;;;;5052719;28;20659;-69
2021/12/16 13:42:16;;;;;;;0.10;0.10;;;9.90;99.90;;;;;;5053937;28;20656;-69
2021/12/16 13:44:52;;;;;;;0.00;0.00;;;9.80;99.90;;;;;;5050926;28;20649;-69
2021/12/16 13:47:43;;;;;;;0.00;0.00;;;9.90;99.90;;;;;;5058289;28;20632;-69
2021/12/16 14:03:04;;;;;;;0.10;0.10;;;9.80;99.90;;;;;;5054122;28;20644;-69
2021/12/16 14:05:55;;;;;;;0.10;0.10;;;9.80;99.90;;;;;;5036087;28;20298;-70
2021/12/16 14:08:36;;;;;;;0.10;0.10;;;9.70;99.90;;;;;;5053491;28;20241;-69
2021/12/16 14:12:01;;;;;;;0.10;0.10;;;9.70;99.90;;;;;;5053475;28;20621;-70
2021/12/16 14:14:47;;;;;;;0.00;0.00;;;9.60;99.90;;;;;;5051026;28;20617;-69
2021/12/16 14:17:45;;;;;;;0.10;0.10;;;9.60;99.90;;;;;;5051813;28;20672;-70
2021/12/16 14:23:15;;;;;;;0.10;0.10;;;9.40;99.90;;;;;;5064518;28;20646;-70
2021/12/16 14:26:07;;;;;;;0.10;0.10;;;9.40;99.90;;;;;;5057478;28;20679;-71
2021/12/16 14:32:05;;;;;;;0.00;0.00;;;9.20;99.90;;;;;;5038885;28;20610;-69
2021/12/16 14:37:28;;;;;;;0.10;0.10;;;9.00;99.90;;;;;;5046700;28;20756;-70
2021/12/16 14:42:58;;;;;;;0.10;0.10;;;8.90;99.90;;;;;;5043815;28;20654;-70
2021/12/16 14:45:36;;;;;;;0.10;0.10;;;8.90;99.90;;;;;;5049000;28;20296;-69
2021/12/16 14:48:26;;;;;;;0.10;0.10;;;8.90;99.90;;;;;;5064108;28;20716;-69
2021/12/16 14:50:58;;;;;;;0.10;0.10;;;8.80;99.90;;;;;;5039423;28;20627;-71
2021/12/16 14:53:33;;;;;;;0.10;0.10;;;8.80;99.90;;;;;;5048825;28;20680;-69
2021/12/16 14:56:05;;;;;;;0.10;0.10;;;8.70;99.90;;;;;;5034873;28;20653;-69
2021/12/16 14:58:32;;;;;;;0.10;0.10;;;8.70;99.90;;;;;;5055498;28;20691;-68
2021/12/16 15:01:04;;;;;;;0.00;0.00;;;8.70;99.90;;;;;;5051212;28;21038;-69
2021/12/16 15:03:37;;;;;;;0.10;0.10;;;8.60;99.90;;;;;;5047201;28;20656;-68
2021/12/16 15:06:07;;;;;;;0.10;0.10;;;8.70;99.90;;;;;;5044161;28;21139;-70
2021/12/16 15:08:42;;;;;;;0.00;0.00;;;8.70;99.90;;;;;;5034534;28;20640;-69
2021/12/16 15:11:13;;;;;;;0.10;0.10;;;8.70;99.90;;;;;;5050216;28;20643;-69
2021/12/16 15:13:46;;;;;;;0.10;0.10;;;8.70;99.90;;;;;;5049422;28;20619;-69
2021/12/16 15:16:38;;;;;;;0.10;0.10;;;8.60;99.90;;;;;;5050247;28;20680;-69
2021/12/16 15:36:27;;;;;;;0.10;0.10;;;8.50;99.90;;;;;;5046959;28;20612;-71
2021/12/16 15:39:01;;;;;;;0.03;0.03;;;8.40;99.90;;;;;;5051858;28;20631;-71
2021/12/16 15:44:12;;;;;;;0.10;0.10;;;8.30;99.90;;;;;;5032432;28;20647;-69
2021/12/16 15:46:40;;;;;;;0.10;0.10;;;8.30;99.90;;;;;;5047535;28;21318;-68
2021/12/16 15:49:09;;;;;;;0.10;0.10;;;8.20;99.90;;;;;;5044284;28;20708;-69
2021/12/16 15:51:38;;;;;;;0.10;0.10;;;8.20;99.90;;;;;;5045865;28;20732;-68